Latest Weather Observations for Bundaberg

IDQ60801

Issued at 9:12 pm EST Wednesday 20 February 2019 (issued every 10 minutes, with the page automatically refreshed every 10 minutes)

About weather observations | Map of weather stations | Latest weather observations for QLD | Other Formats
Station Details ID: 039128 Name: BUNDABERG AERO Lat: -24.91 Lon: 152.32 Height: 30.82 m
Data from the previous 72 hours. | See also: Recent months at Bundaberg
Date/Time
EST
Temp
°C
App
Temp
°C
Dew
Point
°C
Rel
Hum
%
Delta-T
°C
Wind Press
QNH
hPa
Press
MSL
hPa
Rain since
9am
mm
Dir  Spd
km/h
Gust
km/h
Spd
kts
Gust
kts
20/09:00pm 25.3 27.3 21.6 80 2.5 SE 13 17 7 9 1006.1 1005.9 0.0
20/08:30pm 25.9 26.9 21.8 78 2.7 SE 19 24 10 13 1005.7 1005.5 0.0
20/08:00pm 26.3 27.3 21.7 76 3.1 SE 19 24 10 13 1005.7 1005.5 0.0
20/07:30pm 26.6 26.6 21.6 74 3.3 ESE 24 32 13 17 1005.4 1005.2 0.0
20/07:00pm 26.8 26.4 21.6 73 3.5 ESE 26 35 14 19 1005.1 1004.9 0.0
20/06:30pm 27.3 25.7 21.6 71 3.8 ESE 32 41 17 22 1004.6 1004.4 0.0
20/06:00pm 28.2 27.0 21.5 67 4.5 E 30 39 16 21 1004.3 1004.1 0.0
20/05:30pm 28.9 26.5 21.1 62 5.2 ESE 35 44 19 24 1003.9 1003.7 0.0
20/05:00pm 29.9 28.0 21.0 59 6.0 E 32 39 17 21 1003.7 1003.5 0.0
20/04:30pm 31.2 30.2 20.5 53 7.1 E 26 35 14 19 1003.4 1003.2 0.0
20/04:00pm 31.4 30.0 20.4 52 7.3 E 28 35 15 19 1003.4 1003.2 0.0
20/03:30pm 31.6 30.6 20.5 51 7.4 E 26 35 14 19 1003.4 1003.2 0.0
20/03:00pm 32.7 31.4 20.6 49 8.1 E 28 37 15 20 1003.6 1003.4 0.0
20/02:30pm 32.2 31.2 20.5 50 7.8 E 26 37 14 20 1003.9 1003.7 0.0
20/02:00pm 32.0 31.0 19.6 47 8.2 ESE 24 32 13 17 1004.3 1004.1 0.0
20/01:30pm 32.7 31.3 19.6 46 8.6 ESE 26 33 14 18 1004.8 1004.6 0.0
20/01:00pm 34.2 34.2 20.2 43 9.4 E 20 33 11 18 1005.3 1005.1 0.0
20/12:30pm 33.6 33.1 17.7 38 10.2 S 17 22 9 12 1005.8 1005.6 0.0
20/12:00pm 32.9 34.3 18.7 43 9.3 SSE 9 20 5 11 1006.4 1006.2 0.0
20/11:30am 32.2 32.7 18.4 44 8.9 SSE 13 22 7 12 1006.8 1006.6 0.0
20/11:00am 31.4 32.0 18.7 46 8.3 SE 13 22 7 12 1007.3 1007.1 0.0
20/10:30am 30.6 30.6 19.0 50 7.5 SE 17 24 9 13 1007.8 1007.6 0.0
20/10:00am 29.8 30.7 20.1 56 6.4 S 15 22 8 12 1008.1 1007.9 0.0
20/09:30am 28.1 29.5 20.4 63 5.1 S 13 19 7 10 1008.3 1008.1 0.0
20/09:00am 27.5 28.9 21.1 68 4.3 S 15 24 8 13 1008.4 1008.2 0.0
20/08:30am 26.6 28.0 21.1 72 3.6 S 15 22 8 12 1008.4 1008.2 0.0
20/08:00am 25.9 27.2 21.6 77 2.9 S 17 20 9 11 1008.4 1008.2 0.0
20/07:32am 24.9 27.1 21.8 83 2.1 SSW 13 17 7 9 1008.3 1008.1 0.0
20/07:30am 24.6 27.2 21.9 85 1.8 SSW 11 17 6 9 1008.3 1008.1 0.0
20/07:00am 23.5 25.9 21.6 89 1.3 SSW 11 15 6 8 1008.1 1007.9 0.0
20/06:30am 22.0 24.0 20.8 93 0.8 SSW 11 15 6 8 1007.5 1007.3 0.0
20/06:02am 21.4 23.3 20.6 95 0.5 SW 11 15 6 8 1006.8 1006.6 0.0
20/06:00am 21.3 23.2 20.5 95 0.5 SW 11 15 6 8 1006.8 1006.6 0.0
20/05:30am 21.0 23.0 20.0 94 0.6 SW 9 13 5 7 1006.4 1006.2 0.0
20/05:00am 21.4 23.2 20.4 94 0.6 SSW 11 13 6 7 1005.9 1005.7 0.0
20/04:30am 21.5 23.4 20.5 94 0.6 SSW 11 13 6 7 1005.4 1005.2 0.0
20/04:00am 21.3 23.0 20.1 93 0.8 S 11 15 6 8 1005.3 1005.1 0.0
20/03:30am 21.2 23.1 19.8 92 0.9 S 9 11 5 6 1005.2 1005.0 0.0
20/03:00am 21.2 23.1 19.7 91 1.0 SE 9 11 5 6 1005.2 1005.0 0.0
20/02:30am 21.6 23.5 19.7 89 1.2 SSE 9 13 5 7 1005.2 1005.0 0.0
20/02:00am 21.9 23.8 19.8 88 1.3 SSE 9 11 5 6 1005.3 1005.1 0.0
20/01:30am 22.6 24.8 20.3 87 1.5 SSE 9 13 5 7 1005.8 1005.6 0.0
20/01:00am 22.6 24.7 20.1 86 1.6 S 9 11 5 6 1006.2 1006.0 0.0
20/12:30am 23.0 25.2 20.3 85 1.7 S 9 11 5 6 1006.6 1006.4 0.0
20/12:00am 23.0 25.0 20.0 83 1.9 S 9 11 5 6 1006.9 1006.7 0.0
 
Date/Time
EST
Temp
°C
App
Temp
°C
Dew
Point
°C
Rel
Hum
%
Delta-T
°C
Wind Press
QNH
hPa
Press
MSL
hPa
Rain since
9am
mm
Dir  Spd
km/h
Gust
km/h
Spd
kts
Gust
kts
19/11:30pm 23.6 25.7 20.1 81 2.3 S 9 11 5 6 1007.4 1007.2 0.0
19/11:00pm 23.8 26.0 20.3 81 2.3 S 9 11 5 6 1007.7 1007.5 0.0
19/10:30pm 24.1 26.8 20.6 81 2.3 SSE 7 9 4 5 1007.9 1007.7 0.0
19/10:00pm 23.9 26.5 20.4 81 2.3 SSW 7 7 4 4 1008.0 1007.8 0.0
19/09:30pm 24.3 26.9 20.4 79 2.5 S 7 7 4 4 1007.9 1007.7 0.0
19/09:00pm 25.1 28.3 20.6 76 3.0 SE 4 7 2 4 1007.7 1007.5 0.0
19/08:30pm 25.2 27.4 20.5 75 3.1 ESE 9 11 5 6 1007.4 1007.2 0.0
19/08:00pm 25.7 27.7 20.7 74 3.3 E 11 13 6 7 1007.0 1006.8 0.0
19/07:30pm 26.2 28.1 20.5 71 3.7 E 11 15 6 8 1006.6 1006.4 0.0
19/07:00pm 26.7 28.0 20.1 67 4.3 E 13 17 7 9 1006.2 1006.0 0.0
19/06:30pm 27.5 28.3 20.6 66 4.5 E 17 24 9 13 1005.8 1005.6 0.0
19/06:00pm 28.5 28.4 20.0 60 5.6 E 20 28 11 15 1005.5 1005.3 0.0
19/05:30pm 29.5 29.3 19.8 56 6.4 E 20 30 11 16 1005.0 1004.8 0.0
19/05:00pm 30.2 29.2 19.6 53 7.0 E 24 30 13 16 1004.7 1004.5 0.0
19/04:30pm 31.0 29.3 19.0 48 7.8 ENE 26 33 14 18 1004.3 1004.1 0.0
19/04:00pm 31.6 29.9 18.9 47 8.3 E 26 32 14 17 1004.2 1004.0 0.0
19/03:30pm 31.7 29.9 18.7 46 8.4 ENE 26 37 14 20 1004.1 1003.9 0.0
19/03:00pm 31.9 30.3 19.2 47 8.3 E 26 33 14 18 1004.1 1003.9 0.0
19/02:30pm 32.9 31.9 19.7 45 8.7 E 24 35 13 19 1004.2 1004.0 0.0
19/02:00pm 33.4 33.3 19.5 44 9.2 ESE 19 26 10 14 1004.4 1004.2 0.0
19/01:30pm 33.6 33.5 16.9 37 10.6 SE 13 19 7 10 1004.9 1004.7 0.0
19/01:00pm 32.7 32.7 17.3 39 9.9 SE 13 20 7 11 1005.6 1005.4 0.0
19/12:30pm 32.1 33.2 17.9 42 9.1 SSE 9 19 5 10 1006.0 1005.8 0.0
19/12:00pm 32.3 33.0 18.8 44 8.8 ESE 13 22 7 12 1006.7 1006.5 0.0
19/11:30am 31.3 30.4 18.3 46 8.4 E 20 32 11 17 1007.3 1007.1 0.0
19/11:00am 31.9 33.5 19.2 47 8.3 SSE 9 20 5 11 1007.7 1007.5 0.0
19/10:30am 30.5 31.7 18.2 47 7.9 SSE 9 22 5 12 1008.1 1007.9 0.0
19/10:00am 30.2 31.0 17.3 46 8.2 ESE 9 17 5 9 1008.5 1008.3 0.0
19/09:30am 28.5 29.4 19.2 57 6.0 SE 13 20 7 11 1008.7 1008.5 0.0
19/09:00am 27.7 28.9 20.0 63 5.0 SSE 13 20 7 11 1008.9 1008.7 0.0
19/08:30am 27.0 28.5 20.6 68 4.2 SSE 13 20 7 11 1008.9 1008.7 0.0
19/08:00am 24.8 25.4 19.4 72 3.5 S 15 20 8 11 1008.9 1008.7 0.0
19/07:30am 23.5 24.0 18.4 73 3.2 S 13 17 7 9 1008.7 1008.5 0.0
19/07:00am 22.0 23.2 18.2 79 2.4 SSW 9 15 5 8 1008.7 1008.5 0.0
19/06:30am 20.8 21.4 17.6 82 2.0 SSW 11 15 6 8 1008.5 1008.3 0.0
19/06:00am 19.8 20.6 17.4 86 1.5 SSW 9 15 5 8 1008.2 1008.0 0.0
19/05:30am 19.3 19.9 16.9 86 1.5 SW 9 13 5 7 1008.1 1007.9 0.0
19/05:00am 19.8 20.6 17.4 86 1.5 SSW 9 13 5 7 1007.8 1007.6 0.0
19/04:30am 19.9 20.6 17.1 84 1.7 SSW 9 13 5 7 1007.6 1007.4 0.0
19/04:00am 20.1 20.1 17.3 84 1.7 S 13 17 7 9 1007.6 1007.4 0.0
19/03:30am 20.1 20.5 17.3 84 1.7 SSW 11 17 6 9 1007.7 1007.5 0.0
19/03:00am 20.1 20.1 17.1 83 1.8 S 13 15 7 8 1007.8 1007.6 0.0
19/02:30am 20.4 20.0 17.2 82 2.0 S 15 19 8 10 1007.9 1007.7 0.0
19/02:00am 20.2 20.6 17.2 83 1.8 SSW 11 15 6 8 1008.1 1007.9 0.0
19/01:30am 20.2 20.6 17.2 83 1.8 SSW 11 15 6 8 1008.4 1008.2 0.0
19/01:00am 20.7 21.1 17.3 81 2.1 SSW 11 17 6 9 1008.8 1008.6 0.0
19/12:30am 21.1 21.6 17.5 80 2.2 S 11 13 6 7 1009.2 1009.0 0.0
19/12:00am 21.1 21.6 17.5 80 2.2 SSW 11 15 6 8 1009.5 1009.3 0.0
 
Date/Time
EST
Temp
°C
App
Temp
°C
Dew
Point
°C
Rel
Hum
%
Delta-T
°C
Wind Press
QNH
hPa
Press
MSL
hPa
Rain since
9am
mm
Dir  Spd
km/h
Gust
km/h
Spd
kts
Gust
kts
18/11:30pm 20.6 21.5 17.6 83 1.8 SSW 9 13 5 7 1009.7 1009.5 0.0
18/11:00pm 21.3 23.1 17.5 79 2.3 S 4 6 2 3 1010.1 1009.9 0.0
18/10:30pm 21.9 23.1 18.3 80 2.3 SE 9 11 5 6 1010.2 1010.0 0.0
18/10:00pm 22.3 23.4 18.1 77 2.6 SSE 9 13 5 7 1010.2 1010.0 0.0
18/09:30pm 23.1 24.2 18.0 73 3.2 SSE 9 13 5 7 1010.2 1010.0 0.0
18/09:00pm 23.8 24.5 18.0 70 3.6 SSE 11 15 6 8 1010.0 1009.8 0.0
18/08:30pm 24.4 24.0 18.1 68 4.0 SE 17 22 9 12 1009.7 1009.5 0.0
18/08:00pm 25.0 24.1 17.7 64 4.6 SE 19 26 10 14 1009.4 1009.2 0.0
18/07:30pm 25.6 23.1 17.0 59 5.3 SE 26 33 14 18 1008.9 1008.7 0.0
18/07:00pm 25.9 23.2 17.5 59 5.3 ESE 28 39 15 21 1008.4 1008.2 0.0
18/06:30pm 26.3 23.6 17.6 58 5.5 ESE 28 43 15 23 1008.0 1007.8 0.0
18/06:00pm 27.1 22.3 16.7 53 6.5 ESE 37 50 20 27 1007.7 1007.5 0.0
18/05:34pm 27.7 23.6 17.3 53 6.5 E 35 54 19 29 1007.3 1007.1 0.0
18/05:30pm 28.0 23.3 16.9 51 6.9 E 37 54 20 29 1007.4 1007.2 0.0
18/05:00pm 28.6 24.0 17.2 50 7.2 ESE 37 50 20 27 1007.0 1006.8 0.0
18/04:50pm 28.8 24.5 17.0 49 7.4 ESE 35 54 19 29 1006.8 1006.6 0.0
18/04:30pm 29.0 24.2 17.5 49 7.3 E 39 54 21 29 1006.6 1006.4 0.0
18/04:00pm 29.5 24.4 16.7 46 8.0 E 39 48 21 26 1006.7 1006.5 0.0
18/03:30pm 30.0 25.4 16.1 43 8.7 E 35 46 19 25 1006.7 1006.5 0.0
18/03:00pm 31.0 26.8 15.8 40 9.5 E 32 43 17 23 1007.0 1006.8 0.0
18/02:30pm 30.8 27.3 16.4 42 9.0 E 30 41 16 22 1007.2 1007.0 0.0
18/02:00pm 30.0 26.2 16.8 45 8.3 E 32 43 17 23 1007.7 1007.5 0.0
18/01:30pm 31.0 28.2 17.3 43 8.7 E 28 43 15 23 1008.2 1008.0 0.0
18/01:00pm 30.5 26.8 16.1 41 9.0 E 30 39 16 21 1008.6 1008.4 0.0
18/12:30pm 30.1 26.8 16.1 42 8.7 E 28 37 15 20 1008.9 1008.7 0.0
18/12:00pm 30.2 27.5 14.7 39 9.5 ESE 22 35 12 19 1009.4 1009.2 0.0
18/11:30am 30.0 27.1 14.1 37 9.6 ESE 22 35 12 19 1009.7 1009.5 0.0
18/11:00am 29.5 27.3 14.5 40 9.1 SE 19 28 10 15 1010.2 1010.0 0.0
18/10:30am 30.0 26.7 14.1 37 9.6 ESE 24 32 13 17 1010.5 1010.3 0.0
18/10:00am 29.4 26.9 14.0 39 9.3 SE 20 30 11 16 1010.7 1010.5 0.0
18/09:30am 27.7 25.1 15.0 45 7.7 SE 22 33 12 18 1011.0 1010.8 0.0
18/09:00am 27.6 24.9 15.6 48 7.4 SE 24 35 13 19 1011.1 1010.9 0.0
18/08:30am 27.2 27.4 18.5 59 5.6 SSE 15 22 8 12 1011.2 1011.0 0.0
18/08:00am 25.5 25.0 17.7 62 4.9 S 17 22 9 12 1011.2 1011.0 0.0
18/07:30am 23.7 22.6 17.2 67 4.0 S 19 22 10 12 1011.1 1010.9 0.0
18/07:00am 22.6 22.7 17.5 73 3.2 SSW 13 20 7 11 1010.9 1010.7 0.0
18/06:30am 21.1 21.1 17.3 79 2.3 SSW 13 19 7 10 1010.6 1010.4 0.0
18/06:00am 20.2 20.6 17.2 83 1.8 SSW 11 17 6 9 1010.4 1010.2 0.0
18/05:30am 19.9 20.2 17.1 84 1.7 SSW 11 15 6 8 1010.2 1010.0 0.0
18/05:00am 19.9 20.2 17.1 84 1.7 S 11 15 6 8 1009.9 1009.7 0.0
18/04:30am 20.2 20.6 17.2 83 1.8 SSW 11 15 6 8 1009.8 1009.6 0.0
18/04:00am 20.8 20.9 17.4 81 2.1 SSW 13 17 7 9 1009.7 1009.5 0.0
18/03:30am 21.0 21.2 17.6 81 2.1 SSW 13 20 7 11 1009.8 1009.6 0.0
18/03:00am 21.1 21.2 17.5 80 2.2 SSW 13 20 7 11 1009.7 1009.5 0.0
18/02:30am 20.9 21.4 17.5 81 2.1 SSW 11 17 6 9 1009.8 1009.6 0.0
18/02:00am 20.9 21.1 17.7 82 2.0 S 13 17 7 9 1010.1 1009.9 0.0
18/01:30am 20.8 21.4 17.8 83 1.9 SSW 11 15 6 8 1010.3 1010.1 0.0
18/01:00am 20.9 21.5 17.7 82 2.0 S 11 17 6 9 1010.6 1010.4 0.0
18/12:30am 21.1 21.4 17.9 82 2.0 S 13 20 7 11 1011.0 1010.8 0.0
18/12:00am 21.2 21.1 17.8 81 2.1 S 15 19 8 10 1011.4 1011.2 0.0
 
Date/Time
EST
Temp
°C
App
Temp
°C
Dew
Point
°C
Rel
Hum
%
Delta-T
°C
Wind Press
QNH
hPa
Press
MSL
hPa
Rain since
9am
mm
Dir  Spd
km/h
Gust
km/h
Spd
kts
Gust
kts
17/11:30pm 21.6 21.9 17.8 79 2.4 SSE 13 19 7 10 1011.5 1011.3 0.0
17/11:00pm 21.8 22.1 17.8 78 2.5 SSE 13 17 7 9 1011.6 1011.4 0.0
17/10:30pm 22.2 22.5 18.0 77 2.6 SSE 13 19 7 10 1011.8 1011.6 0.0
17/10:00pm 22.6 22.8 17.7 74 3.0 SSE 13 19 7 10 1011.8 1011.6 0.0
17/09:30pm 23.2 23.5 17.9 72 3.3 SSE 13 17 7 9 1011.7 1011.5 0.0

Other formats

Comma delimited format used in spreadsheet applications
http://www.bom.gov.au/fwo/IDQ60801/IDQ60801.94387.axf

JavaScript Object Notation format (JSON) in row-major order
http://www.bom.gov.au/fwo/IDQ60801/IDQ60801.94387.json

Data quality

Most of these data are generated automatically and are frequently updated. Quality checks on data are not normally performed. It is possible for incorrect values to appear. Refer to information at About Latest Weather Observations and please check the disclaimer before using these data.